Time;durP1;ratioP1;P1;durP2;ratioP2;P2;SDS_P1;SDS_P2;PMS_P1;PMS_P2;Temp;Humidity;BMP_temperature;BMP_pressure;BME280_temperature;BME280_humidity;BME280_pressure;Samples;Min_cycle;Max_cycle;Signal;HPM_P1;HPM_P2
2022/11/05 00:10:57;;;;;;;47.78;28.83;;;;;;;8.97;88.60;101090.09;1793522;80;20974;-85
2022/11/05 00:16:42;;;;;;;53.80;32.88;;;;;;;8.97;88.79;101101.87;1793075;80;20985;-84
2022/11/05 00:19:05;;;;;;;53.55;34.80;;;;;;;8.98;89.04;101098.78;1792971;80;21885;-85
2022/11/05 00:26:49;;;;;;;66.87;41.37;;;;;;;9.03;88.86;101101.59;1793060;80;20935;-85
2022/11/05 00:29:16;;;;;;;69.10;42.55;;;;;;;9.04;88.79;101099.82;1793174;80;20958;-84
2022/11/05 00:31:42;;;;;;;53.92;37.08;;;;;;;9.06;88.78;101097.98;1793278;80;21115;-84
2022/11/05 00:34:09;;;;;;;49.25;32.03;;;;;;;9.06;88.74;101101.44;1793057;80;21499;-82
2022/11/05 00:36:36;;;;;;;43.55;30.82;;;;;;;9.07;88.69;101106.20;1793102;80;20962;-85
2022/11/05 00:39:05;;;;;;;58.42;35.40;;;;;;;9.08;88.56;101105.31;1792943;80;20935;-83
2022/11/05 00:41:31;;;;;;;62.10;38.67;;;;;;;9.07;88.48;101110.13;1793060;80;20974;-83
2022/11/05 00:46:43;;;;;;;50.60;33.65;;;;;;;9.03;88.75;101107.30;1793107;80;20867;-83
2022/11/05 00:54:40;;;;;;;44.70;31.85;;;;;;;8.89;89.33;101111.38;1793081;80;20954;-85
2022/11/05 00:57:07;;;;;;;51.13;30.75;;;;;;;8.88;89.71;101108.83;1793074;80;21186;-84
2022/11/05 00:59:35;;;;;;;46.25;32.53;;;;;;;8.84;89.73;101108.11;1792824;79;20880;-84
2022/11/05 01:02:01;;;;;;;47.88;33.00;;;;;;;8.82;89.98;101113.86;1792502;79;20959;-84
2022/11/05 01:04:28;;;;;;;45.17;31.62;;;;;;;8.82;90.39;101118.25;1790300;80;20951;-84
2022/11/05 01:06:55;;;;;;;50.15;32.95;;;;;;;8.82;90.69;101111.71;1789934;79;20911;-83
2022/11/05 01:09:23;;;;;;;41.98;30.17;;;;;;;8.81;90.84;101113.48;1789749;79;20887;-84
2022/11/05 01:11:51;;;;;;;39.58;28.52;;;;;;;8.82;91.04;101116.95;1790282;79;20876;-83
2022/11/05 01:14:18;;;;;;;42.60;29.00;;;;;;;8.83;91.15;101116.88;1790086;80;20903;-84
2022/11/05 01:16:45;;;;;;;36.45;28.17;;;;;;;8.81;91.04;101116.10;1789659;80;20950;-84
2022/11/05 01:19:11;;;;;;;41.40;28.70;;;;;;;8.81;91.15;101120.02;1789711;80;20927;-84
2022/11/05 01:21:38;;;;;;;46.30;30.43;;;;;;;8.81;91.25;101118.72;1789696;79;21233;-83
2022/11/05 01:24:05;;;;;;;40.85;27.48;;;;;;;8.81;91.51;101120.02;1789664;80;20872;-85
2022/11/05 01:26:32;;;;;;;36.83;27.05;;;;;;;8.83;91.79;101119.97;1789661;79;21358;-84
2022/11/05 01:28:59;;;;;;;38.45;28.32;;;;;;;8.85;91.83;101123.36;1789633;79;20966;-83
2022/11/05 01:31:25;;;;;;;43.17;29.30;;;;;;;8.87;91.92;101128.91;1789615;80;20856;-83
2022/11/05 01:33:52;;;;;;;39.35;28.32;;;;;;;8.86;91.99;101132.42;1789707;80;21330;-83
2022/11/05 01:36:19;;;;;;;41.45;30.52;;;;;;;8.84;92.06;101126.41;1789491;79;20891;-83
2022/11/05 01:38:46;;;;;;;42.40;29.63;;;;;;;8.83;92.09;101133.05;1789617;80;20939;-83
2022/11/05 01:41:13;;;;;;;43.13;30.55;;;;;;;8.83;92.08;101126.50;1789493;79;20875;-84
2022/11/05 01:43:55;;;;;;;39.15;29.48;;;;;;;8.82;92.09;101126.09;1789725;80;20927;-85
2022/11/05 01:46:33;;;;;;;42.33;28.30;;;;;;;8.80;92.22;101132.69;1789550;79;21280;-84
2022/11/05 01:49:13;;;;;;;41.77;28.87;;;;;;;8.81;92.46;101137.48;1789085;79;21408;-86
2022/11/05 01:51:41;;;;;;;53.15;30.00;;;;;;;8.80;92.61;101137.92;1783370;80;20891;-85
2022/11/05 01:54:10;;;;;;;41.15;27.60;;;;;;;8.83;92.80;101126.50;1789659;79;20875;-82
2022/11/05 01:56:47;;;;;;;36.60;26.23;;;;;;;8.83;92.69;101127.81;1789693;80;21345;-84
2022/11/05 01:59:18;;;;;;;38.53;26.30;;;;;;;8.80;92.60;101128.77;1790180;80;21307;-82
2022/11/05 02:01:45;;;;;;;38.85;26.52;;;;;;;8.77;92.57;101132.00;1792833;80;20966;-83
2022/11/05 02:04:20;;;;;;;35.92;25.60;;;;;;;8.74;92.55;101137.34;1793012;80;20926;-84
2022/11/05 02:06:47;;;;;;;28.47;22.30;;;;;;;8.73;92.53;101137.81;1791982;80;20967;-85
2022/11/05 02:09:32;;;;;;;29.95;22.98;;;;;;;8.71;92.45;101145.74;1793198;80;20851;-84
2022/11/05 02:11:59;;;;;;;32.98;24.63;;;;;;;8.70;92.36;101149.72;1792990;80;21182;-82
2022/11/05 02:14:27;;;;;;;32.78;23.00;;;;;;;8.70;92.52;101154.95;1793032;80;20883;-84
2022/11/05 02:17:09;;;;;;;31.30;22.87;;;;;;;8.66;92.68;101147.69;1793381;80;21001;-85
2022/11/05 02:19:47;;;;;;;33.90;24.43;;;;;;;8.70;92.78;101158.41;1759743;80;20978;-82
2022/11/05 02:22:20;;;;;;;34.45;23.90;;;;;;;8.71;92.65;101157.94;1793309;80;20994;-78
2022/11/05 02:25:15;;;;;;;32.17;23.18;;;;;;;8.69;92.56;101158.03;1793165;80;21299;-82
2022/11/05 02:28:36;;;;;;;31.05;22.45;;;;;;;8.69;92.63;101165.00;1794076;80;20887;-85
2022/11/05 02:31:19;;;;;;;26.57;20.92;;;;;;;8.70;92.91;101158.41;1793216;80;21292;-84
2022/11/05 02:33:55;;;;;;;29.48;22.20;;;;;;;8.70;92.84;101164.94;1796065;80;20950;-83
2022/11/05 02:37:16;;;;;;;31.23;22.48;;;;;;;8.68;92.78;101165.47;1795807;78;20911;-83
2022/11/05 02:39:55;;;;;;;31.95;23.57;;;;;;;8.66;92.86;101163.84;1793626;80;21260;-83
2022/11/05 02:42:52;;;;;;;37.45;23.85;;;;;;;8.64;92.93;101169.59;1792906;80;20855;-83
2022/11/05 02:45:39;;;;;;;31.75;22.65;;;;;;;8.62;93.01;101172.72;1756905;80;20899;-82
2022/11/05 02:48:41;;;;;;;28.83;21.95;;;;;;;8.63;93.47;101173.98;1792894;80;20938;-82
2022/11/05 02:51:25;;;;;;;30.27;22.85;;;;;;;8.67;93.71;101174.67;1792993;80;20872;-83
2022/11/05 02:54:16;;;;;;;32.53;24.00;;;;;;;8.69;93.82;101173.72;1792763;80;21246;-83
2022/11/05 02:56:48;;;;;;;32.93;24.15;;;;;;;8.70;93.61;101174.56;1792815;80;20927;-80
2022/11/05 02:59:15;;;;;;;31.95;24.47;;;;;;;8.70;93.58;101178.48;1759461;80;20998;-83
2022/11/05 03:01:43;;;;;;;37.15;25.15;;;;;;;8.70;93.50;101177.17;1793060;79;21321;-84
2022/11/05 03:04:12;;;;;;;34.85;24.40;;;;;;;8.69;93.41;101174.16;1793138;80;20871;-84
2022/11/05 03:07:24;;;;;;;36.38;24.75;;;;;;;8.67;93.45;101171.63;1793103;80;21143;-84
2022/11/05 03:10:15;;;;;;;33.55;24.18;;;;;;;8.68;93.40;101173.78;1793033;80;20914;-83
2022/11/05 03:12:55;;;;;;;34.35;24.12;;;;;;;8.67;93.51;101163.78;1793170;79;20864;-84
2022/11/05 03:16:01;;;;;;;32.93;24.30;;;;;;;8.67;93.45;101165.52;1791958;78;20978;-84
2022/11/05 03:18:43;;;;;;;35.70;24.70;;;;;;;8.66;93.29;101166.45;1792955;79;20887;-82
2022/11/05 03:21:20;;;;;;;37.00;24.50;;;;;;;8.62;93.10;101166.19;1792924;80;21248;-84
2022/11/05 03:24:19;;;;;;;32.95;22.55;;;;;;;8.58;92.94;101162.87;1775220;79;21460;-84
2022/11/05 03:27:05;;;;;;;37.35;23.50;;;;;;;8.57;92.85;101165.55;1792616;78;20986;-84
2022/11/05 03:29:37;;;;;;;31.65;24.67;;;;;;;8.54;92.76;101166.97;1793084;79;20883;-83
2022/11/05 03:32:04;;;;;;;32.80;24.20;;;;;;;8.53;92.64;101171.81;1793131;79;20844;-84
2022/11/05 03:34:37;;;;;;;33.33;23.22;;;;;;;8.53;92.65;101165.28;1792972;79;21171;-85
2022/11/05 03:37:03;;;;;;;31.73;23.10;;;;;;;8.49;92.49;101166.73;1793116;80;20936;-83
2022/11/05 03:39:47;;;;;;;35.52;22.80;;;;;;;8.47;92.33;101173.78;1793918;79;20856;-83
2022/11/05 03:42:16;;;;;;;28.73;21.57;;;;;;;8.44;92.21;101174.36;1795851;79;20930;-83
2022/11/05 03:44:48;;;;;;;32.20;22.65;;;;;;;8.39;92.09;101173.22;1795296;80;20910;-82
2022/11/05 03:47:19;;;;;;;31.35;23.38;;;;;;;8.37;91.99;101176.34;1793745;79;21105;-83
2022/11/05 03:50:08;;;;;;;33.85;23.05;;;;;;;8.33;91.92;101177.38;1792780;80;20919;-83
2022/11/05 03:52:40;;;;;;;30.97;20.77;;;;;;;8.30;91.84;101177.06;1792661;79;20919;-83
2022/11/05 03:55:06;;;;;;;34.20;22.98;;;;;;;8.25;91.72;101175.57;1792967;79;21404;-83
2022/11/05 03:57:36;;;;;;;35.20;24.75;;;;;;;8.21;91.61;101174.83;1793196;79;20911;-84
2022/11/05 04:00:08;;;;;;;33.53;24.43;;;;;;;8.18;91.45;101180.62;1791030;79;21253;-84
2022/11/05 04:02:37;;;;;;;;;;;;;;;8.12;91.33;101175.22;1792347;80;20908;-83
2022/11/05 04:05:05;;;;;;;39.20;23.98;;;;;;;8.08;91.25;101183.63;1789651;80;20088;-84
2022/11/05 04:13:24;;;;;;;28.15;23.67;;;;;;;7.92;90.62;101192.16;1790425;80;21558;-85
2022/11/05 04:18:40;;;;;;;31.07;23.30;;;;;;;7.75;90.58;101200.17;1789980;79;20930;-84
2022/11/05 04:24:08;;;;;;;30.55;23.02;;;;;;;7.62;90.77;101202.86;1789925;80;20852;-85
2022/11/05 04:26:42;;;;;;;31.07;22.80;;;;;;;7.56;90.76;101200.48;1789912;79;21159;-84
2022/11/05 04:31:54;;;;;;;29.55;22.77;;;;;;;7.42;90.80;101207.06;1789902;79;20903;-86
2022/11/05 04:34:21;;;;;;;36.08;23.52;;;;;;;7.34;90.83;101210.44;1789909;79;20883;-85
2022/11/05 04:36:49;;;;;;;29.85;22.20;;;;;;;7.29;90.98;101215.41;1790157;79;20931;-85
2022/11/05 04:39:17;;;;;;;32.28;23.40;;;;;;;7.22;90.99;101213.48;1790043;79;21111;-84
2022/11/05 04:41:46;;;;;;;34.18;23.12;;;;;;;7.16;91.05;101220.22;1789716;80;20918;-83
2022/11/05 04:44:14;;;;;;;34.80;26.37;;;;;;;7.10;91.10;101225.22;1789694;79;20997;-83
2022/11/05 04:46:41;;;;;;;34.55;23.47;;;;;;;7.05;91.20;101217.56;1789662;79;20942;-86
2022/11/05 04:49:08;;;;;;;36.10;24.72;;;;;;;7.01;91.17;101227.70;1789726;79;20884;-84
2022/11/05 04:51:35;;;;;;;39.70;27.52;;;;;;;6.94;91.05;101224.91;1789831;80;21269;-83
2022/11/05 04:54:02;;;;;;;38.38;27.82;;;;;;;6.88;91.12;101218.60;1789932;80;20895;-85
2022/11/05 04:56:32;;;;;;;36.45;25.90;;;;;;;6.84;91.19;101220.91;1790131;79;20979;-85
2022/11/05 04:58:58;;;;;;;37.85;28.75;;;;;;;6.79;91.41;101218.47;1789902;79;21397;-84
2022/11/05 05:01:25;;;;;;;41.20;27.48;;;;;;;6.76;91.59;101215.98;1789787;79;20982;-83
2022/11/05 05:03:52;;;;;;;40.17;24.98;;;;;;;6.75;91.64;101222.54;1789726;79;22233;-84
2022/11/05 05:06:21;;;;;;;37.60;25.90;;;;;;;6.72;91.78;101222.20;1789837;80;20954;-83
2022/11/05 05:08:49;;;;;;;38.17;26.75;;;;;;;6.72;91.93;101225.27;1790236;80;20970;-84
2022/11/05 05:11:18;;;;;;;40.20;26.90;;;;;;;6.70;92.06;101227.91;1759187;80;20899;-85
2022/11/05 05:13:46;;;;;;;39.98;26.93;;;;;;;6.69;92.27;101223.59;1789846;79;20978;-84
2022/11/05 05:16:22;;;;;;;40.03;26.30;;;;;;;6.68;92.43;101223.66;1790772;79;21899;-82
2022/11/05 05:18:48;;;;;;;35.85;26.80;;;;;;;6.69;92.59;101235.77;1790931;80;21554;-85
2022/11/05 05:24:10;;;;;;;46.18;30.05;;;;;;;6.71;92.90;101243.09;1790184;79;21117;-85
2022/11/05 05:26:40;;;;;;;38.75;27.02;;;;;;;6.73;92.99;101248.64;1788862;80;20938;-84
2022/11/05 05:29:06;;;;;;;39.92;26.97;;;;;;;6.75;92.97;101259.03;1789964;80;21201;-85
2022/11/05 05:31:33;;;;;;;43.58;28.17;;;;;;;6.76;92.89;101261.59;1789786;80;20891;-85
2022/11/05 05:34:00;;;;;;;42.23;27.65;;;;;;;6.79;92.94;101260.64;1789475;79;20919;-85
2022/11/05 05:36:26;;;;;;;39.15;26.52;;;;;;;6.83;92.92;101264.84;1789827;79;21413;-85
2022/11/05 05:38:52;;;;;;;40.28;27.22;;;;;;;6.88;92.97;101270.75;1789955;79;20935;-84
2022/11/05 05:41:19;;;;;;;40.88;27.37;;;;;;;6.93;92.86;101275.34;1792637;79;21095;-85
2022/11/05 05:43:45;;;;;;;48.65;29.55;;;;;;;6.99;92.84;101285.56;1791999;78;21397;-84
2022/11/05 05:46:14;;;;;;;42.62;28.98;;;;;;;7.05;92.83;101287.13;1789812;79;20931;-83
2022/11/05 05:48:42;;;;;;;43.75;29.87;;;;;;;7.11;92.87;101292.11;1789896;79;20943;-84
2022/11/05 05:51:10;;;;;;;44.90;28.70;;;;;;;7.18;92.85;101289.70;1789904;79;20887;-85
2022/11/05 05:53:37;;;;;;;44.53;30.75;;;;;;;7.26;92.89;101292.88;1789767;80;21479;-85
2022/11/05 05:56:04;;;;;;;45.63;30.15;;;;;;;7.34;92.83;101301.75;1789695;79;20927;-83
2022/11/05 05:58:37;;;;;;;40.65;29.05;;;;;;;7.42;92.80;101310.59;1789757;79;20943;-84
2022/11/05 06:01:07;;;;;;;43.42;29.52;;;;;;;7.50;92.70;101309.03;1791726;80;20923;-86
2022/11/05 06:03:35;;;;;;;43.50;30.60;;;;;;;7.59;92.54;101308.70;1792790;80;20935;-85
2022/11/05 06:06:04;;;;;;;44.38;30.02;;;;;;;7.68;92.51;101316.19;1792866;80;21221;-85
2022/11/05 06:08:31;;;;;;;46.58;30.45;;;;;;;7.76;92.43;101322.42;1792734;80;20927;-87
2022/11/05 06:10:58;;;;;;;43.33;30.37;;;;;;;7.85;92.40;101326.86;1793071;80;20930;-85
2022/11/05 06:13:28;;;;;;;51.40;31.10;;;;;;;7.93;92.21;101332.25;1793119;80;20855;-84
2022/11/05 06:16:04;;;;;;;55.98;38.00;;;;;;;8.01;92.08;101336.27;1793036;80;21025;-84
2022/11/05 06:18:31;;;;;;;54.55;35.83;;;;;;;8.07;91.97;101332.56;1793073;80;21257;-83
2022/11/05 06:21:11;;;;;;;52.17;35.68;;;;;;;8.12;91.85;101333.72;1792945;80;21404;-84
2022/11/05 06:23:40;;;;;;;48.42;32.48;;;;;;;8.16;91.70;101330.05;1792804;80;21443;-84
2022/11/05 06:26:11;;;;;;;49.45;31.23;;;;;;;8.20;91.67;101331.64;1792996;80;20943;-83
2022/11/05 06:28:38;;;;;;;41.77;31.42;;;;;;;8.23;91.60;101338.92;1793093;80;20903;-84
2022/11/05 06:31:04;;;;;;;38.02;30.02;;;;;;;8.28;91.63;101340.05;1793135;80;21223;-84
2022/11/05 06:33:31;;;;;;;43.00;29.18;;;;;;;8.33;91.68;101334.64;1792996;80;20895;-85
2022/11/05 06:35:58;;;;;;;42.75;29.67;;;;;;;8.39;91.72;101335.72;1793055;80;20974;-85
2022/11/05 06:38:25;;;;;;;41.42;31.77;;;;;;;8.44;91.67;101346.40;1792898;80;21534;-84
2022/11/05 06:40:52;;;;;;;36.90;29.23;;;;;;;8.49;91.77;101345.78;1793270;80;20923;-84
2022/11/05 06:43:19;;;;;;;39.00;28.23;;;;;;;8.55;91.90;101346.44;1766727;80;21092;-84
2022/11/05 06:45:46;;;;;;;40.85;29.32;;;;;;;8.61;91.77;101343.13;1793404;80;20998;-83
2022/11/05 06:48:12;;;;;;;42.67;31.55;;;;;;;8.68;91.87;101343.73;1793178;80;20879;-85
2022/11/05 06:50:44;;;;;;;39.35;28.27;;;;;;;8.75;91.87;101344.33;1793165;80;20966;-84
2022/11/05 06:53:10;;;;;;;43.28;30.95;;;;;;;8.82;91.76;101347.08;1760972;80;20899;-84
2022/11/05 06:55:38;;;;;;;41.90;29.15;;;;;;;8.88;91.60;101343.77;1793444;80;21233;-87
2022/11/05 06:58:06;;;;;;;39.78;29.07;;;;;;;8.95;91.52;101343.52;1793719;80;20962;-85
2022/11/05 07:00:33;;;;;;;46.35;31.23;;;;;;;9.02;91.47;101340.56;1794714;79;20896;-84
2022/11/05 07:03:07;;;;;;;45.98;31.23;;;;;;;9.07;91.29;101336.02;1791723;78;20912;-84
2022/11/05 07:05:37;;;;;;;46.75;33.25;;;;;;;9.10;91.04;101350.72;1791700;78;20903;-82
2022/11/05 07:08:04;;;;;;;49.25;32.53;;;;;;;9.12;90.88;101350.20;1792069;78;21072;-85
2022/11/05 07:10:32;;;;;;;45.52;32.35;;;;;;;9.12;90.74;101353.67;1791623;79;20918;-85
2022/11/05 07:12:59;;;;;;;43.95;32.23;;;;;;;9.17;90.87;101363.09;1791896;78;21012;-84
2022/11/05 07:15:28;;;;;;;45.40;31.75;;;;;;;9.22;91.10;101356.73;1791621;78;20958;-83
2022/11/05 07:17:58;;;;;;;39.25;30.77;;;;;;;9.28;90.71;101356.48;1792349;78;20813;-86
2022/11/05 07:20:27;;;;;;;41.35;28.67;;;;;;;9.33;90.38;101362.36;1792047;78;21201;-84
2022/11/05 07:23:06;;;;;;;38.65;29.18;;;;;;;9.40;90.04;101362.10;1792569;78;20950;-83
2022/11/05 07:25:33;;;;;;;34.65;27.32;;;;;;;9.46;89.83;101355.30;1791315;78;20903;-84
2022/11/05 07:28:00;;;;;;;34.83;28.05;;;;;;;9.54;89.68;101353.20;1790837;79;20923;-85
2022/11/05 07:30:26;;;;;;;38.20;28.67;;;;;;;9.64;89.44;101355.79;1790060;79;21440;-85
2022/11/05 07:32:53;;;;;;;36.58;27.95;;;;;;;9.79;89.30;101357.35;1789836;79;21132;-84
2022/11/05 07:35:19;;;;;;;32.50;26.10;;;;;;;9.92;88.80;101363.27;1789434;79;20875;-85
2022/11/05 07:37:49;;;;;;;29.50;24.43;;;;;;;10.04;88.29;101359.23;1789650;79;20962;-85
2022/11/05 07:40:22;;;;;;;32.35;25.45;;;;;;;10.10;87.23;101362.89;1789727;79;21049;-85
2022/11/05 07:42:54;;;;;;;31.70;24.80;;;;;;;10.19;86.33;101368.17;1789529;80;20880;-85
2022/11/05 07:45:20;;;;;;;29.00;23.07;;;;;;;10.25;85.81;101370.52;1788912;80;21272;-85
2022/11/05 07:47:56;;;;;;;32.93;24.30;;;;;;;10.34;85.31;101372.73;1789430;80;20907;-86
2022/11/05 07:50:24;;;;;;;29.67;23.85;;;;;;;10.36;84.44;101373.98;1789551;80;20895;-85
2022/11/05 07:52:51;;;;;;;31.35;23.12;;;;;;;10.36;83.95;101372.20;1789618;79;20892;-81
2022/11/05 07:55:18;;;;;;;29.45;23.20;;;;;;;10.39;83.61;101376.45;1790232;79;20950;-84
2022/11/05 07:57:50;;;;;;;29.30;22.55;;;;;;;10.43;83.16;101374.55;1759664;80;21282;-87
2022/11/05 08:00:21;;;;;;;29.67;22.35;;;;;;;10.49;82.87;101368.98;1789856;80;21013;-86
2022/11/05 08:03:03;;;;;;;28.75;22.77;;;;;;;10.56;82.72;101376.50;1791030;79;20931;-85
2022/11/05 08:05:30;;;;;;;29.10;21.75;;;;;;;10.65;82.72;101377.84;1786185;79;20959;-83
2022/11/05 08:07:59;;;;;;;28.75;21.97;;;;;;;10.78;82.46;101377.63;1760405;80;20950;-85
2022/11/05 08:10:27;;;;;;;25.70;20.65;;;;;;;10.89;82.17;101386.27;1789913;79;21101;-86
2022/11/05 08:15:33;;;;;;;28.57;22.55;;;;;;;10.99;81.13;101387.53;1807856;78;22816;-84
2022/11/05 08:18:05;;;;;;;25.62;20.50;;;;;;;10.97;80.85;101387.22;1767955;79;20923;-87
2022/11/05 08:20:37;;;;;;;24.98;20.30;;;;;;;11.01;80.92;101383.52;1789316;80;21169;-84
2022/11/05 08:23:04;;;;;;;24.50;19.82;;;;;;;11.07;80.22;101388.91;1794544;80;21532;-83
2022/11/05 08:25:32;;;;;;;28.95;20.15;;;;;;;11.12;79.74;101387.77;1753327;80;20987;-82
2022/11/05 08:28:02;;;;;;;22.07;18.27;;;;;;;11.19;79.65;101393.56;1774810;80;20955;-85
2022/11/05 08:30:30;;;;;;;23.62;18.82;;;;;;;11.23;79.14;101389.87;1783051;80;20903;-86
2022/11/05 08:33:07;;;;;;;22.40;19.52;;;;;;;11.30;78.78;101391.72;1771568;77;21082;-86
2022/11/05 08:35:36;;;;;;;25.08;20.35;;;;;;;11.35;78.65;101395.80;1796662;79;20881;-85
2022/11/05 08:38:05;;;;;;;26.12;19.90;;;;;;;11.45;78.44;101396.20;1787536;77;20974;-85
2022/11/05 08:40:33;;;;;;;27.95;20.00;;;;;;;11.57;78.18;101399.95;1766309;78;21095;-86
2022/11/05 08:43:03;;;;;;;22.90;19.02;;;;;;;11.62;77.67;101400.56;1788438;77;21010;-84
2022/11/05 08:45:30;;;;;;;25.00;20.08;;;;;;;11.65;77.25;101404.80;1789302;79;21210;-85
2022/11/05 08:48:07;;;;;;;26.60;21.65;;;;;;;11.65;76.66;101401.73;1784722;76;20994;-85
2022/11/05 08:50:37;;;;;;;26.97;21.05;;;;;;;11.63;76.62;101407.53;1739922;78;20958;-86
2022/11/05 08:53:07;;;;;;;23.10;19.02;;;;;;;11.62;76.86;101403.19;1795326;76;20880;-85
2022/11/05 08:55:38;;;;;;;24.57;20.75;;;;;;;11.63;76.50;101408.84;1771761;76;21113;-86
2022/11/05 08:58:13;;;;;;;26.87;23.05;;;;;;;11.61;76.08;101407.60;1779658;76;21516;-87
2022/11/05 09:00:40;;;;;;;25.92;21.93;;;;;;;11.58;75.98;101408.20;1766711;80;21852;-87
2022/11/05 09:03:10;;;;;;;25.52;21.42;;;;;;;11.51;75.86;101407.67;1761493;79;21028;-85
2022/11/05 09:05:38;;;;;;;26.15;22.60;;;;;;;11.46;75.94;101408.38;1762593;80;21125;-86
2022/11/05 09:08:16;;;;;;;24.30;20.43;;;;;;;11.44;76.25;101405.45;1794196;80;21065;-84
2022/11/05 09:10:45;;;;;;;23.77;20.57;;;;;;;11.44;76.58;101409.39;1763466;80;21378;-85
2022/11/05 09:13:13;;;;;;;24.10;20.75;;;;;;;11.39;76.50;101413.09;1701660;81;20947;-87
2022/11/05 09:15:40;;;;;;;26.90;21.62;;;;;;;11.36;76.51;101416.33;1676414;83;20920;-85
2022/11/05 09:18:10;;;;;;;22.40;18.85;;;;;;;11.36;76.51;101418.52;1725578;83;21015;-86
2022/11/05 09:20:38;;;;;;;24.72;20.65;;;;;;;11.34;76.46;101417.74;1753772;81;20923;-84
2022/11/05 09:23:07;;;;;;;24.67;20.35;;;;;;;11.28;76.57;101418.52;1735394;81;21103;-83
2022/11/05 09:25:34;;;;;;;25.57;20.08;;;;;;;11.23;76.57;101416.13;1737574;81;20942;-84
2022/11/05 09:28:17;;;;;;;22.77;19.10;;;;;;;11.23;76.55;101421.38;1715634;81;20923;-85
2022/11/05 09:30:49;;;;;;;22.67;20.08;;;;;;;11.23;76.45;101421.81;1747783;81;20943;-85
2022/11/05 09:33:23;;;;;;;22.58;19.27;;;;;;;11.18;76.22;101421.60;1738699;81;20904;-83
2022/11/05 09:35:52;;;;;;;24.40;20.43;;;;;;;11.16;76.40;101426.08;1707219;81;21257;-84
2022/11/05 09:38:20;;;;;;;25.05;19.85;;;;;;;11.14;76.69;101430.55;1759645;81;20995;-87
2022/11/05 09:41:12;;;;;;;21.77;18.20;;;;;;;11.22;77.58;101430.63;1751986;81;20987;-87
2022/11/05 09:43:52;;;;;;;22.67;19.00;;;;;;;11.54;78.67;101431.65;1753925;81;20955;-85
2022/11/05 09:46:34;;;;;;;22.30;18.67;;;;;;;11.86;76.58;101435.23;1729584;81;21070;-86
2022/11/05 09:49:04;;;;;;;21.37;17.85;;;;;;;12.06;75.22;101438.62;1752360;81;21888;-87
2022/11/05 09:51:35;;;;;;;19.40;16.48;;;;;;;12.26;74.92;101435.77;1735367;81;20931;-85
2022/11/05 09:54:02;;;;;;;19.05;16.57;;;;;;;12.63;74.67;101433.30;1750811;81;20954;-84
2022/11/05 09:56:35;;;;;;;25.37;17.35;;;;;;;12.93;73.52;101440.39;1745331;81;21519;-86
2022/11/05 09:59:08;;;;;;;20.43;17.23;;;;;;;13.14;72.49;101443.60;1738762;81;20884;-83
2022/11/05 10:01:35;;;;;;;20.08;17.92;;;;;;;13.30;71.47;101440.11;1730045;81;21252;-83
2022/11/05 10:04:16;;;;;;;19.30;16.97;;;;;;;13.44;71.06;101437.50;1754992;81;20994;-85
2022/11/05 10:06:52;;;;;;;24.52;20.27;;;;;;;13.50;69.56;101434.52;1698963;81;20928;-85
2022/11/05 10:09:30;;;;;;;22.75;20.40;;;;;;;13.50;69.56;101434.52;1760923;81;22049;-84
2022/11/05 10:12:04;;;;;;;23.62;20.25;;;;;;;13.40;69.34;101431.55;1760373;80;20916;-84
2022/11/05 10:14:39;;;;;;;22.90;20.37;;;;;;;13.27;69.06;101430.10;1752910;81;21134;-86
2022/11/05 10:17:21;;;;;;;23.32;19.57;;;;;;;13.14;69.12;101433.06;1746984;81;20912;-85
2022/11/05 10:19:52;;;;;;;23.75;21.07;;;;;;;13.02;69.57;101436.39;1738997;81;21065;-87
2022/11/05 10:22:19;;;;;;;23.25;20.02;;;;;;;12.91;69.76;101439.63;1735433;81;21418;-85
2022/11/05 10:24:48;;;;;;;29.57;20.62;;;;;;;12.85;69.67;101436.05;1746214;81;20982;-86
2022/11/05 10:27:29;;;;;;;25.68;21.35;;;;;;;12.73;69.87;101426.20;1729554;81;21243;-85
2022/11/05 10:29:58;;;;;;;22.40;18.95;;;;;;;12.76;70.29;101432.16;1732687;81;20892;-85
2022/11/05 10:32:32;;;;;;;22.75;18.85;;;;;;;12.85;70.20;101432.10;1723551;81;21421;-84
2022/11/05 10:35:00;;;;;;;19.27;17.12;;;;;;;12.94;69.72;101432.89;1748628;81;21382;-84
2022/11/05 10:37:27;;;;;;;18.10;15.95;;;;;;;13.21;69.99;101438.83;1746173;81;21027;-83
2022/11/05 10:39:53;;;;;;;17.65;15.78;;;;;;;13.66;68.72;101435.29;1746791;81;21136;-85
2022/11/05 10:42:52;;;;;;;19.35;15.25;;;;;;;14.18;67.16;101437.00;1754164;81;21018;-83
2022/11/05 10:45:52;;;;;;;19.37;16.02;;;;;;;14.57;65.45;101429.73;1742453;81;20955;-85
2022/11/05 10:48:58;;;;;;;17.73;15.48;;;;;;;14.81;64.49;101431.27;1732625;81;21003;-83
2022/11/05 10:51:25;;;;;;;21.33;16.87;;;;;;;14.98;62.70;101419.59;1738233;81;21527;-87
2022/11/05 10:53:55;;;;;;;19.80;17.48;;;;;;;14.58;61.84;101423.49;1750558;81;21100;-85
2022/11/05 10:56:37;;;;;;;22.77;20.32;;;;;;;14.58;61.84;101423.49;1705260;81;21098;-85
2022/11/05 10:59:05;;;;;;;20.00;17.87;;;;;;;14.29;62.51;101426.63;1743375;81;20943;-85
2022/11/05 11:01:33;;;;;;;24.00;20.35;;;;;;;14.04;63.44;101429.47;1748067;81;20936;-83
2022/11/05 11:04:18;;;;;;;22.55;18.95;;;;;;;13.77;63.85;101425.90;1743829;81;20934;-85
2022/11/05 11:06:52;;;;;;;21.40;19.17;;;;;;;13.48;64.57;101431.96;1744583;81;21856;-86
2022/11/05 11:09:29;;;;;;;22.55;18.65;;;;;;;13.29;65.31;101427.39;1729715;81;21035;-87
2022/11/05 11:12:22;;;;;;;21.30;18.30;;;;;;;13.16;65.43;101429.87;1724227;81;20991;-87
2022/11/05 11:15:05;;;;;;;22.27;18.85;;;;;;;12.99;65.80;101426.89;1707353;82;21002;-85
2022/11/05 11:17:33;;;;;;;23.22;20.05;;;;;;;12.84;66.34;101428.59;1686840;83;20885;-85
2022/11/05 11:20:27;;;;;;;21.35;19.00;;;;;;;12.74;66.80;101431.83;1719275;81;21134;-84
2022/11/05 11:23:10;;;;;;;22.40;17.87;;;;;;;12.68;67.00;101434.83;1747163;81;20895;-82
2022/11/05 11:25:48;;;;;;;23.25;17.48;;;;;;;12.55;67.24;101429.39;1729955;81;21418;-84
2022/11/05 11:28:26;;;;;;;46.35;36.35;;;;;;;12.44;67.28;101429.50;1752308;81;20975;-86
2022/11/05 11:31:08;;;;;;;16.25;14.55;;;;;;;12.34;67.09;101440.16;1735811;81;21373;-86
2022/11/05 11:33:35;;;;;;;17.27;14.40;;;;;;;12.24;67.08;101433.21;1734735;81;21246;-84
2022/11/05 11:36:07;;;;;;;15.20;13.65;;;;;;;12.16;67.02;101438.50;1757782;81;20967;-85
2022/11/05 11:38:35;;;;;;;16.27;13.25;;;;;;;12.12;67.10;101439.15;1760324;81;21505;-86
2022/11/05 11:41:27;;;;;;;14.90;12.25;;;;;;;12.19;67.33;101439.20;1740107;81;20959;-85
2022/11/05 11:43:58;;;;;;;13.22;11.60;;;;;;;12.29;66.70;101438.22;1738217;80;21002;-85
2022/11/05 11:46:26;;;;;;;15.35;13.35;;;;;;;12.41;66.04;101440.67;1735940;81;21138;-88
2022/11/05 11:48:55;;;;;;;15.00;12.45;;;;;;;12.39;65.46;101439.44;1728617;81;20939;-85
2022/11/05 11:51:36;;;;;;;13.90;12.40;;;;;;;12.39;65.58;101446.02;1729675;81;20907;-86
2022/11/05 11:54:04;;;;;;;14.70;11.97;;;;;;;12.33;65.47;101443.70;1733491;81;21033;-84
2022/11/05 11:56:47;;;;;;;17.10;13.13;;;;;;;12.20;65.72;101441.35;1743005;81;20928;-85
2022/11/05 11:59:28;;;;;;;16.50;12.95;;;;;;;12.08;66.22;101447.28;1748236;81;21168;-87
2022/11/05 12:02:27;;;;;;;17.15;13.93;;;;;;;11.99;66.62;101444.67;1740673;81;20860;-86
2022/11/05 12:05:03;;;;;;;16.67;14.03;;;;;;;11.91;67.13;101448.16;1742969;81;21053;-86
2022/11/05 12:07:42;;;;;;;16.12;13.95;;;;;;;11.86;68.14;101444.42;1758646;81;20951;-84
2022/11/05 12:10:43;;;;;;;17.65;14.15;;;;;;;11.91;68.76;101442.43;1751477;81;21480;-84
2022/11/05 12:13:22;;;;;;;16.32;12.95;;;;;;;11.99;68.59;101449.45;1740675;81;21169;-85
2022/11/05 12:15:59;;;;;;;14.63;11.78;;;;;;;12.14;68.34;101444.30;1748962;81;21345;-83
2022/11/05 12:18:59;;;;;;;14.30;12.85;;;;;;;12.29;68.13;101445.27;1740430;81;20987;-86
2022/11/05 12:21:43;;;;;;;12.90;11.50;;;;;;;12.43;67.66;101446.70;1738239;81;21524;-85
2022/11/05 12:24:49;;;;;;;11.22;10.03;;;;;;;12.58;66.16;101439.29;1729000;81;21054;-85
2022/11/05 12:27:42;;;;;;;12.65;11.08;;;;;;;12.63;65.70;101439.88;1753994;81;21191;-84